createdAt,value
2023-04-15T00:00:22.922Z,7.94
2023-04-15T00:03:30.460Z,7.95
2023-04-15T00:06:38.386Z,7.96
2023-04-15T00:09:44.341Z,7.97
2023-04-15T00:12:51.066Z,7.96
2023-04-15T00:15:57.808Z,7.90
2023-04-15T00:19:04.829Z,7.85
2023-04-15T00:22:11.365Z,7.79
2023-04-15T00:25:18.380Z,7.77
2023-04-15T00:28:24.893Z,7.72
2023-04-15T00:31:30.796Z,7.67
2023-04-15T00:34:36.174Z,7.61
2023-04-15T00:37:45.942Z,7.58
2023-04-15T00:40:51.581Z,7.55
2023-04-15T00:43:57.719Z,7.54
2023-04-15T00:47:04.944Z,7.53
2023-04-15T00:50:11.424Z,7.49
2023-04-15T00:53:18.229Z,7.48
2023-04-15T00:56:24.738Z,7.48
2023-04-15T00:59:31.050Z,7.51
2023-04-15T01:02:37.850Z,7.50
2023-04-15T01:05:43.619Z,7.48
2023-04-15T01:08:50.408Z,7.45
2023-04-15T01:11:56.630Z,7.44
2023-04-15T01:15:04.821Z,7.42
2023-04-15T01:18:12.932Z,7.40
2023-04-15T01:21:20.151Z,7.42
2023-04-15T01:24:26.510Z,7.43
2023-04-15T01:27:33.592Z,7.44
2023-04-15T01:30:39.582Z,7.41
2023-04-15T01:33:47.392Z,7.39
2023-04-15T01:36:54.242Z,7.37
2023-04-15T01:40:00.324Z,7.28
2023-04-15T01:43:08.380Z,7.24
2023-04-15T01:46:14.434Z,7.24
2023-04-15T01:49:21.224Z,7.22
2023-04-15T01:52:27.065Z,7.19
2023-04-15T01:55:32.736Z,7.17
2023-04-15T01:58:39.022Z,7.15
2023-04-15T02:01:46.454Z,7.13
2023-04-15T02:04:51.985Z,7.04
2023-04-15T02:08:00.590Z,7.00
2023-04-15T02:11:09.436Z,7.00
2023-04-15T02:14:16.537Z,7.01
2023-04-15T02:17:22.990Z,7.00
2023-04-15T02:20:30.396Z,7.03
2023-04-15T02:23:36.731Z,7.04
2023-04-15T02:26:45.350Z,7.04
2023-04-15T02:29:53.785Z,7.01
2023-04-15T02:33:00.516Z,6.97
2023-04-15T02:36:08.646Z,6.95
2023-04-15T02:39:16.925Z,6.94
2023-04-15T02:42:22.898Z,6.89
2023-04-15T02:45:33.109Z,6.90
2023-04-15T02:48:40.007Z,6.91
2023-04-15T02:51:46.118Z,6.91
2023-04-15T02:54:52.394Z,6.89
2023-04-15T02:57:58.534Z,6.90
2023-04-15T03:01:04.986Z,6.89
2023-04-15T03:04:10.329Z,6.89
2023-04-15T03:07:17.791Z,6.88
2023-04-15T03:10:25.317Z,6.88
2023-04-15T03:13:31.628Z,6.88
2023-04-15T03:16:40.628Z,6.87
2023-04-15T03:19:49.080Z,6.89
2023-04-15T03:22:55.252Z,6.89
2023-04-15T03:26:06.537Z,6.89
2023-04-15T03:29:12.205Z,6.90
2023-04-15T03:32:22.105Z,6.89
2023-04-15T03:35:28.708Z,6.91
2023-04-15T03:38:36.873Z,6.90
2023-04-15T03:41:42.964Z,6.91
2023-04-15T03:44:50.800Z,6.91
2023-04-15T03:48:07.295Z,6.89
2023-04-15T03:51:07.701Z,6.89
2023-04-15T03:54:15.330Z,6.89
2023-04-15T03:57:22.042Z,6.92
2023-04-15T04:00:28.791Z,6.95
2023-04-15T04:03:36.226Z,6.98
2023-04-15T04:06:42.437Z,6.98
2023-04-15T04:09:49.211Z,6.99
2023-04-15T04:12:57.224Z,7.00
2023-04-15T04:16:03.682Z,6.92
2023-04-15T04:19:10.834Z,6.79
2023-04-15T04:22:17.651Z,6.82
2023-04-15T04:25:25.284Z,6.89
2023-04-15T04:28:31.568Z,6.96
2023-04-15T04:31:36.878Z,7.03
2023-04-15T04:34:44.178Z,7.10
2023-04-15T04:37:50.276Z,7.12
2023-04-15T04:40:56.044Z,7.13
2023-04-15T04:44:02.545Z,7.22
2023-04-15T04:47:07.951Z,7.35
2023-04-15T04:50:13.592Z,7.46
2023-04-15T04:53:19.837Z,7.46
2023-04-15T04:56:27.705Z,7.55
2023-04-15T04:59:34.269Z,7.63
2023-04-15T05:02:39.859Z,7.71
2023-04-15T05:05:48.672Z,7.79
2023-04-15T05:08:57.653Z,7.80
2023-04-15T05:12:03.473Z,7.86
2023-04-15T05:15:10.275Z,7.95
2023-04-15T05:18:15.662Z,7.99
2023-04-15T05:21:23.028Z,8.07
2023-04-15T05:24:29.915Z,8.11
2023-04-15T05:27:36.851Z,8.12
2023-04-15T05:30:42.480Z,8.17
2023-04-15T05:33:48.041Z,8.24
2023-04-15T05:36:54.322Z,8.28
2023-04-15T05:40:00.424Z,8.34
2023-04-15T05:43:06.484Z,8.43
2023-04-15T05:46:12.532Z,8.54
2023-04-15T05:49:18.728Z,8.60
2023-04-15T05:52:26.041Z,8.60
2023-04-15T05:55:32.121Z,8.63
2023-04-15T05:58:40.296Z,8.70
2023-04-15T06:01:51.361Z,8.73
2023-04-15T06:05:00.368Z,8.75
2023-04-15T06:08:07.536Z,8.64
2023-04-15T06:11:14.738Z,8.63
2023-04-15T06:14:22.869Z,8.68
2023-04-15T06:17:29.486Z,8.75
2023-04-15T06:20:35.956Z,8.82
2023-04-15T06:23:44.529Z,8.85
2023-04-15T06:26:51.319Z,8.85
2023-04-15T06:29:58.446Z,8.84
2023-04-15T06:33:05.533Z,8.86
2023-04-15T06:36:11.678Z,8.85
2023-04-15T06:39:17.852Z,8.86
2023-04-15T06:42:24.321Z,8.90
2023-04-15T06:45:32.408Z,8.84
2023-04-15T06:48:37.579Z,8.80
2023-04-15T06:51:42.419Z,8.70
2023-04-15T06:54:51.852Z,8.67
2023-04-15T06:57:58.240Z,8.63
2023-04-15T07:01:04.518Z,8.68
2023-04-15T07:04:10.933Z,8.66
2023-04-15T07:07:11.223Z,8.67
2023-04-15T07:09:58.365Z,8.80
2023-04-15T07:12:51.815Z,8.92
2023-04-15T07:15:46.206Z,8.89
2023-04-15T07:18:53.041Z,8.85
2023-04-15T07:21:59.575Z,8.85
2023-04-15T07:25:05.168Z,8.85
2023-04-15T07:28:10.228Z,8.90
2023-04-15T07:31:19.615Z,8.92
2023-04-15T07:34:28.645Z,8.89
2023-04-15T07:37:36.895Z,8.84
2023-04-15T07:40:42.031Z,8.87
2023-04-15T07:43:48.730Z,8.86
2023-04-15T07:46:56.930Z,8.82
2023-04-15T07:50:04.911Z,8.83
2023-04-15T07:53:10.880Z,8.93
2023-04-15T07:56:17.117Z,8.90
2023-04-15T07:59:24.357Z,8.91
2023-04-15T08:02:32.069Z,8.97
2023-04-15T08:05:38.243Z,9.05
2023-04-15T08:08:44.807Z,9.08
2023-04-15T08:11:51.637Z,8.92
2023-04-15T08:14:58.619Z,8.86
2023-04-15T08:18:08.489Z,8.91
2023-04-15T08:21:14.993Z,8.96
2023-04-15T08:24:21.168Z,8.89
2023-04-15T08:27:28.799Z,8.70
2023-04-15T08:30:34.700Z,8.68
2023-04-15T08:33:39.968Z,8.70
2023-04-15T08:36:47.245Z,8.75
2023-04-15T08:39:53.828Z,8.84
2023-04-15T08:43:01.541Z,8.99
2023-04-15T08:46:08.999Z,9.10
2023-04-15T08:49:20.193Z,9.09
2023-04-15T08:52:26.482Z,9.16
2023-04-15T08:55:32.964Z,9.25
2023-04-15T08:58:39.333Z,9.23
2023-04-15T09:01:45.036Z,9.25
2023-04-15T09:04:52.578Z,9.40
2023-04-15T09:07:59.563Z,9.51
2023-04-15T09:11:05.909Z,9.59
2023-04-15T09:14:13.619Z,9.59
2023-04-15T09:17:20.755Z,9.66
2023-04-15T09:20:28.273Z,9.69
2023-04-15T09:23:34.567Z,9.61
2023-04-15T09:26:51.163Z,9.64
2023-04-15T09:29:56.989Z,9.68
2023-04-15T09:33:20.206Z,9.79
2023-04-15T09:36:28.232Z,9.87
2023-04-15T09:39:34.665Z,9.75
2023-04-15T09:42:41.432Z,9.71
2023-04-15T09:45:47.440Z,9.76
2023-04-15T09:48:55.233Z,9.77
2023-04-15T09:52:05.660Z,9.70
2023-04-15T09:55:13.423Z,9.71
2023-04-15T09:58:19.684Z,9.66
2023-04-15T10:01:25.137Z,9.63
2023-04-15T10:04:31.335Z,9.59
2023-04-15T10:07:36.294Z,9.64
2023-04-15T10:10:41.368Z,9.74
2023-04-15T10:13:48.523Z,9.83
2023-04-15T10:16:56.513Z,9.76
2023-04-15T10:20:04.173Z,9.69
2023-04-15T10:23:12.845Z,9.67
2023-04-15T10:26:21.448Z,9.70
2023-04-15T10:29:27.821Z,9.72
2023-04-15T10:32:35.021Z,9.75
2023-04-15T10:35:41.174Z,9.71
2023-04-15T10:38:58.292Z,9.70
2023-04-15T10:42:18.548Z,9.76
2023-04-15T10:45:28.378Z,9.75
2023-04-15T10:48:35.386Z,9.83
2023-04-15T10:51:48.390Z,9.96
2023-04-15T10:54:54.758Z,10.02
2023-04-15T10:58:02.428Z,10.08
2023-04-15T11:01:10.576Z,10.08
2023-04-15T11:04:16.666Z,10.03
2023-04-15T11:07:25.665Z,10.09
2023-04-15T11:10:49.737Z,10.13
2023-04-15T11:14:03.841Z,10.21
2023-04-15T11:17:10.462Z,10.14
2023-04-15T11:20:16.741Z,10.14
2023-04-15T11:23:24.357Z,10.22
2023-04-15T11:26:30.655Z,10.19
2023-04-15T11:29:35.660Z,10.22
2023-04-15T11:32:42.162Z,10.17
2023-04-15T11:35:48.320Z,10.21
2023-04-15T11:38:59.598Z,10.34
2023-04-15T11:42:05.818Z,10.44
2023-04-15T11:45:31.180Z,10.44
2023-04-15T11:48:40.829Z,10.37
2023-04-15T11:51:48.931Z,10.25
2023-04-15T11:54:56.663Z,10.18
2023-04-15T11:58:01.971Z,10.26
2023-04-15T12:01:14.103Z,10.29
2023-04-15T12:04:32.397Z,10.32
2023-04-15T12:07:38.890Z,10.32
2023-04-15T12:10:47.037Z,10.36
2023-04-15T12:13:53.628Z,10.38
2023-04-15T12:17:04.272Z,10.43
2023-04-15T12:20:11.237Z,10.51
2023-04-15T12:23:22.806Z,10.44
2023-04-15T12:26:28.547Z,10.39
2023-04-15T12:29:34.271Z,10.37
2023-04-15T12:32:42.202Z,10.31
2023-04-15T12:35:48.164Z,10.30
2023-04-15T12:38:54.409Z,10.33
2023-04-15T12:41:59.628Z,10.29
2023-04-15T12:45:05.316Z,10.26
2023-04-15T12:48:10.576Z,10.25
2023-04-15T12:51:15.446Z,10.19
2023-04-15T12:54:21.202Z,10.18
2023-04-15T12:57:27.646Z,10.20
2023-04-15T13:00:32.940Z,10.21
2023-04-15T13:03:40.473Z,10.20
2023-04-15T13:06:46.436Z,10.22
2023-04-15T13:09:54.731Z,10.27
2023-04-15T13:13:02.077Z,10.29
2023-04-15T13:16:09.501Z,10.32
2023-04-15T13:19:15.358Z,10.36
2023-04-15T13:22:24.774Z,10.36
2023-04-15T13:25:31.263Z,10.39
2023-04-15T13:28:37.996Z,10.46
2023-04-15T13:31:43.042Z,10.46
2023-04-15T13:34:49.852Z,10.52
2023-04-15T13:37:55.527Z,10.61
2023-04-15T13:41:03.576Z,10.66
2023-04-15T13:44:09.318Z,10.70
2023-04-15T13:47:14.947Z,10.72
2023-04-15T13:50:23.050Z,10.74
2023-04-15T13:53:38.415Z,10.77
2023-04-15T13:56:35.958Z,10.70
2023-04-15T13:59:41.690Z,10.64
2023-04-15T14:02:47.107Z,10.58
2023-04-15T14:05:53.421Z,10.54
2023-04-15T14:08:58.924Z,10.51
2023-04-15T14:12:06.813Z,10.44
2023-04-15T14:15:13.368Z,10.28
2023-04-15T14:18:19.852Z,10.23
2023-04-15T14:21:27.632Z,10.31
2023-04-15T14:24:36.105Z,10.35
2023-04-15T14:27:41.760Z,10.28
2023-04-15T14:30:48.048Z,10.23
2023-04-15T14:33:53.014Z,10.20
2023-04-15T14:37:00.895Z,10.18
2023-04-15T14:40:07.576Z,10.22
2023-04-15T14:43:12.832Z,10.29
2023-04-15T14:46:18.835Z,10.32
2023-04-15T14:49:25.860Z,10.35
2023-04-15T14:52:32.876Z,10.42
2023-04-15T14:55:39.127Z,10.40
2023-04-15T14:58:47.248Z,10.40
2023-04-15T15:01:53.798Z,10.44
2023-04-15T15:05:00.476Z,10.48
2023-04-15T15:08:09.704Z,10.49
2023-04-15T15:11:18.304Z,10.45
2023-04-15T15:14:25.780Z,10.35
2023-04-15T15:17:30.737Z,10.29
2023-04-15T15:20:37.015Z,10.23
2023-04-15T15:23:41.947Z,10.21
2023-04-15T15:26:48.295Z,10.15
2023-04-15T15:29:55.024Z,10.05
2023-04-15T15:33:02.735Z,9.99
2023-04-15T15:36:09.402Z,9.87
2023-04-15T15:39:14.917Z,9.76
2023-04-15T15:42:22.670Z,9.72
2023-04-15T15:45:30.210Z,9.71
2023-04-15T15:48:37.923Z,9.73
2023-04-15T15:51:43.599Z,9.73
2023-04-15T15:54:49.998Z,9.66
2023-04-15T15:57:57.506Z,9.55
2023-04-15T16:01:04.058Z,9.44
2023-04-15T16:04:10.277Z,9.44
2023-04-15T16:07:16.837Z,9.44
2023-04-15T16:10:24.397Z,9.39
2023-04-15T16:13:30.838Z,9.31
2023-04-15T16:16:38.445Z,9.27
2023-04-15T16:19:58.181Z,9.28
2023-04-15T16:22:53.098Z,9.27
2023-04-15T16:26:00.613Z,9.27
2023-04-15T16:29:07.406Z,9.24
2023-04-15T16:32:13.747Z,9.25
2023-04-15T16:35:23.135Z,9.25
2023-04-15T16:38:29.729Z,9.24
2023-04-15T16:41:36.217Z,9.24
2023-04-15T16:44:41.312Z,9.25
2023-04-15T16:47:46.644Z,9.26
2023-04-15T16:50:52.163Z,9.24
2023-04-15T16:53:59.388Z,9.20
2023-04-15T16:57:06.051Z,9.21
2023-04-15T17:00:11.112Z,9.20
2023-04-15T17:03:17.657Z,9.19
2023-04-15T17:06:24.919Z,9.18
2023-04-15T17:09:32.124Z,9.18
2023-04-15T17:12:40.096Z,9.19
2023-04-15T17:15:48.354Z,9.21
2023-04-15T17:18:55.634Z,9.23
2023-04-15T17:22:01.474Z,9.23
2023-04-15T17:25:08.049Z,9.25
2023-04-15T17:28:14.290Z,9.23
2023-04-15T17:31:19.601Z,9.22
2023-04-15T17:34:25.044Z,9.21
2023-04-15T17:37:34.486Z,9.20
2023-04-15T17:40:40.095Z,9.21
2023-04-15T17:43:45.887Z,9.19
2023-04-15T17:46:51.486Z,9.16
2023-04-15T17:49:58.332Z,9.10
2023-04-15T17:53:08.983Z,9.09
2023-04-15T17:56:15.438Z,9.07
2023-04-15T17:59:23.251Z,9.08
2023-04-15T18:02:30.665Z,9.10
2023-04-15T18:05:37.815Z,9.12
2023-04-15T18:08:44.118Z,9.13
2023-04-15T18:11:52.358Z,9.11
2023-04-15T18:14:58.403Z,9.06
2023-04-15T18:18:04.270Z,8.97
2023-04-15T18:21:11.595Z,8.93
2023-04-15T18:24:19.228Z,8.93
2023-04-15T18:27:25.895Z,8.91
2023-04-15T18:30:31.247Z,8.87
2023-04-15T18:33:36.177Z,8.90
2023-04-15T18:36:41.329Z,8.91
2023-04-15T18:39:47.378Z,8.94
2023-04-15T18:42:53.989Z,8.92
2023-04-15T18:46:01.773Z,8.90
2023-04-15T18:49:08.076Z,8.88
2023-04-15T18:52:15.390Z,8.87
2023-04-15T18:55:21.507Z,8.84
2023-04-15T18:58:26.927Z,8.84
2023-04-15T19:01:33.164Z,8.81
2023-04-15T19:04:39.658Z,8.81
2023-04-15T19:07:46.343Z,8.80
2023-04-15T19:10:53.744Z,8.77
2023-04-15T19:14:01.952Z,8.77
2023-04-15T19:17:06.602Z,8.81
2023-04-15T19:20:12.882Z,8.80
2023-04-15T19:23:18.479Z,8.81
2023-04-15T19:26:24.165Z,8.81
2023-04-15T19:29:30.652Z,8.79
2023-04-15T19:32:30.063Z,8.78
2023-04-15T19:35:18.099Z,8.76
2023-04-15T19:38:12.785Z,8.75
2023-04-15T19:41:18.518Z,8.70
2023-04-15T19:44:24.427Z,8.68
2023-04-15T19:47:30.928Z,8.67
2023-04-15T19:50:39.034Z,8.67
2023-04-15T19:53:45.173Z,8.63
2023-04-15T19:56:50.550Z,8.62
2023-04-15T19:59:57.549Z,8.60
2023-04-15T20:03:04.395Z,8.58
2023-04-15T20:06:11.856Z,8.56
2023-04-15T20:09:18.354Z,8.52
2023-04-15T20:12:51.476Z,8.53
2023-04-15T20:15:37.744Z,8.54
2023-04-15T20:18:44.906Z,8.55
2023-04-15T20:21:52.812Z,8.56
2023-04-15T20:24:58.941Z,8.54
2023-04-15T20:28:05.783Z,8.53
2023-04-15T20:31:13.519Z,8.53
2023-04-15T20:34:20.832Z,8.52
2023-04-15T20:37:27.341Z,8.51
2023-04-15T20:40:35.141Z,8.51
2023-04-15T20:43:42.243Z,8.51
2023-04-15T20:46:48.725Z,8.51
2023-04-15T20:49:58.379Z,8.51
2023-04-15T20:53:03.469Z,8.53
2023-04-15T20:56:10.399Z,8.50
2023-04-15T20:59:15.969Z,8.50
2023-04-15T21:02:22.098Z,8.51
2023-04-15T21:05:29.853Z,8.52
2023-04-15T21:08:36.605Z,8.51
2023-04-15T21:11:53.194Z,8.45
2023-04-15T21:14:44.433Z,8.45
2023-04-15T21:17:49.550Z,8.44
2023-04-15T21:20:55.734Z,8.40
2023-04-15T21:24:05.015Z,8.40
2023-04-15T21:27:11.207Z,8.36
2023-04-15T21:30:16.802Z,8.34
2023-04-15T21:33:22.684Z,8.34
2023-04-15T21:36:29.331Z,8.35
2023-04-15T21:39:35.089Z,8.30
2023-04-15T21:42:42.105Z,8.27
2023-04-15T21:46:21.461Z,8.25
2023-04-15T21:48:57.539Z,8.24
2023-04-15T21:52:04.447Z,8.23
2023-04-15T21:55:10.608Z,8.24
2023-04-15T21:58:16.522Z,8.24
2023-04-15T22:01:23.881Z,8.22
2023-04-15T22:04:30.113Z,8.22
2023-04-15T22:07:38.076Z,8.19
2023-04-15T22:10:46.481Z,8.17
2023-04-15T22:13:51.518Z,8.16
2023-04-15T22:16:59.239Z,8.15
2023-04-15T22:20:05.236Z,8.15
2023-04-15T22:23:12.758Z,8.14
2023-04-15T22:26:18.856Z,8.17
2023-04-15T22:29:23.887Z,8.14
2023-04-15T22:32:30.351Z,8.12
2023-04-15T22:35:35.900Z,8.12
2023-04-15T22:38:42.263Z,8.09
2023-04-15T22:41:48.163Z,8.06
2023-04-15T22:44:53.269Z,8.05
2023-04-15T22:47:59.736Z,8.05
2023-04-15T22:51:06.384Z,8.08
2023-04-15T22:54:11.710Z,8.09
2023-04-15T22:57:18.321Z,8.08
2023-04-15T23:00:25.282Z,8.10
2023-04-15T23:03:31.185Z,8.05
2023-04-15T23:06:40.769Z,8.03
2023-04-15T23:09:49.260Z,8.02
2023-04-15T23:12:56.972Z,8.00
2023-04-15T23:16:03.791Z,8.02
2023-04-15T23:19:09.967Z,8.01
2023-04-15T23:22:17.066Z,8.03
2023-04-15T23:25:24.243Z,8.03
2023-04-15T23:28:29.929Z,8.01
2023-04-15T23:31:38.273Z,8.00
2023-04-15T23:34:43.517Z,7.98
2023-04-15T23:37:49.826Z,7.96
2023-04-15T23:40:56.874Z,7.94
2023-04-15T23:44:02.683Z,7.94
2023-04-15T23:47:10.118Z,7.90
2023-04-15T23:50:15.170Z,7.91
2023-04-15T23:53:21.737Z,7.95
2023-04-15T23:56:28.965Z,7.94
2023-04-15T23:59:34.654Z,7.92
